sensor_id;sensor_type;location;lat;lon;timestamp;pressure;altitude;pressure_sealevel;temperature;humidity
76590;BME280;65471;55.908;37.880;2023-04-12T00:00:59;99986.66;;;3.83;80.56
76590;BME280;65471;55.908;37.880;2023-04-12T00:03:27;99981.69;;;3.79;80.03
76590;BME280;65471;55.908;37.880;2023-04-12T00:05:54;99985.19;;;3.80;80.44
76590;BME280;65471;55.908;37.880;2023-04-12T00:08:21;99987.41;;;3.76;79.98
76590;BME280;65471;55.908;37.880;2023-04-12T00:10:59;99991.91;;;3.76;80.26
76590;BME280;65471;55.908;37.880;2023-04-12T00:13:26;99986.75;;;3.74;80.71
76590;BME280;65471;55.908;37.880;2023-04-12T00:15:53;99986.94;;;3.73;80.74
76590;BME280;65471;55.908;37.880;2023-04-12T00:18:20;99989.97;;;3.70;80.14
76590;BME280;65471;55.908;37.880;2023-04-12T00:20:51;99994.31;;;3.71;80.48
76590;BME280;65471;55.908;37.880;2023-04-12T00:23:19;99991.34;;;3.66;80.62
76590;BME280;65471;55.908;37.880;2023-04-12T00:25:46;99988.03;;;3.63;80.48
76590;BME280;65471;55.908;37.880;2023-04-12T00:28:13;99992.34;;;3.65;80.06
76590;BME280;65471;55.908;37.880;2023-04-12T00:30:41;99993.56;;;3.62;80.28
76590;BME280;65471;55.908;37.880;2023-04-12T00:33:08;99994.56;;;3.61;80.14
76590;BME280;65471;55.908;37.880;2023-04-12T00:35:35;99983.69;;;3.62;80.64
76590;BME280;65471;55.908;37.880;2023-04-12T00:38:02;99992.53;;;3.63;80.82
76590;BME280;65471;55.908;37.880;2023-04-12T00:40:29;99999.53;;;3.64;80.74
76590;BME280;65471;55.908;37.880;2023-04-12T00:42:56;99987.84;;;3.65;80.32
76590;BME280;65471;55.908;37.880;2023-04-12T00:45:23;99992.16;;;3.66;80.04
76590;BME280;65471;55.908;37.880;2023-04-12T00:47:50;99989.50;;;3.66;80.42
76590;BME280;65471;55.908;37.880;2023-04-12T00:50:17;99996.69;;;3.66;80.23
76590;BME280;65471;55.908;37.880;2023-04-12T00:52:44;99989.31;;;3.68;80.31
76590;BME280;65471;55.908;37.880;2023-04-12T00:55:11;99995.31;;;3.70;80.39
76590;BME280;65471;55.908;37.880;2023-04-12T00:57:38;99993.28;;;3.72;80.43
76590;BME280;65471;55.908;37.880;2023-04-12T01:00:07;99987.59;;;3.75;80.63
76590;BME280;65471;55.908;37.880;2023-04-12T01:02:36;99994.41;;;3.77;80.45
76590;BME280;65471;55.908;37.880;2023-04-12T01:05:06;99986.03;;;3.80;80.51
76590;BME280;65471;55.908;37.880;2023-04-12T01:08:01;99986.66;;;3.83;80.68
76590;BME280;65471;55.908;37.880;2023-04-12T01:11:00;99983.00;;;3.84;80.51
76590;BME280;65471;55.908;37.880;2023-04-12T01:13:50;99976.78;;;3.83;80.42
76590;BME280;65471;55.908;37.880;2023-04-12T01:18:53;99983.81;;;3.84;80.33
76590;BME280;65471;55.908;37.880;2023-04-12T01:30:05;99970.50;;;3.76;80.97
76590;BME280;65471;55.908;37.880;2023-04-12T01:32:34;99967.03;;;3.75;80.78
76590;BME280;65471;55.908;37.880;2023-04-12T01:35:03;99970.88;;;3.73;80.53
76590;BME280;65471;55.908;37.880;2023-04-12T01:37:33;99970.06;;;3.72;81.11
76590;BME280;65471;55.908;37.880;2023-04-12T01:40:02;99977.91;;;3.74;80.98
76590;BME280;65471;55.908;37.880;2023-04-12T01:42:31;99970.88;;;3.73;80.77
76590;BME280;65471;55.908;37.880;2023-04-12T01:44:58;99973.75;;;3.71;80.37
76590;BME280;65471;55.908;37.880;2023-04-12T01:47:25;99970.44;;;3.69;80.96
76590;BME280;65471;55.908;37.880;2023-04-12T01:52:37;99966.91;;;3.69;80.91
76590;BME280;65471;55.908;37.880;2023-04-12T01:55:07;99969.13;;;3.65;81.41
76590;BME280;65471;55.908;37.880;2023-04-12T01:57:36;99961.47;;;3.62;80.68
76590;BME280;65471;55.908;37.880;2023-04-12T02:00:06;99964.78;;;3.64;80.97
76590;BME280;65471;55.908;37.880;2023-04-12T02:02:34;99962.28;;;3.62;81.28
76590;BME280;65471;55.908;37.880;2023-04-12T02:05:03;99959.63;;;3.62;81.22
76590;BME280;65471;55.908;37.880;2023-04-12T02:07:30;99953.47;;;3.62;81.23
76590;BME280;65471;55.908;37.880;2023-04-12T02:09:57;99951.78;;;3.61;81.03
76590;BME280;65471;55.908;37.880;2023-04-12T02:12:24;99954.47;;;3.61;81.36
76590;BME280;65471;55.908;37.880;2023-04-12T02:14:51;99953.47;;;3.62;81.29
76590;BME280;65471;55.908;37.880;2023-04-12T02:17:18;99948.09;;;3.62;81.19
76590;BME280;65471;55.908;37.880;2023-04-12T02:19:45;99957.94;;;3.61;80.99
76590;BME280;65471;55.908;37.880;2023-04-12T02:22:12;99950.78;;;3.62;81.19
76590;BME280;65471;55.908;37.880;2023-04-12T02:24:39;99952.78;;;3.60;81.03
76590;BME280;65471;55.908;37.880;2023-04-12T02:27:07;99950.13;;;3.60;80.83
76590;BME280;65471;55.908;37.880;2023-04-12T02:29:34;99954.66;;;3.59;81.40
76590;BME280;65471;55.908;37.880;2023-04-12T02:32:00;99949.28;;;3.59;80.91
76590;BME280;65471;55.908;37.880;2023-04-12T02:34:27;99950.13;;;3.60;81.24
76590;BME280;65471;55.908;37.880;2023-04-12T02:36:59;99946.81;;;3.58;80.93
76590;BME280;65471;55.908;37.880;2023-04-12T02:39:26;99944.94;;;3.58;80.92
76590;BME280;65471;55.908;37.880;2023-04-12T02:41:54;99950.66;;;3.55;81.05
76590;BME280;65471;55.908;37.880;2023-04-12T02:44:22;99945.50;;;3.54;81.50
76590;BME280;65471;55.908;37.880;2023-04-12T02:46:49;99953.03;;;3.50;80.92
76590;BME280;65471;55.908;37.880;2023-04-12T02:49:15;99945.56;;;3.45;81.63
76590;BME280;65471;55.908;37.880;2023-04-12T02:51:43;99944.09;;;3.43;81.13
76590;BME280;65471;55.908;37.880;2023-04-12T02:54:09;99953.09;;;3.42;81.39
76590;BME280;65471;55.908;37.880;2023-04-12T02:56:36;99947.94;;;3.40;81.25
76590;BME280;65471;55.908;37.880;2023-04-12T02:59:03;99951.66;;;3.39;81.45
76590;BME280;65471;55.908;37.880;2023-04-12T03:01:30;99955.50;;;3.37;81.45
76590;BME280;65471;55.908;37.880;2023-04-12T03:03:57;99959.38;;;3.34;81.39
76590;BME280;65471;55.908;37.880;2023-04-12T03:06:24;99954.22;;;3.33;81.18
76590;BME280;65471;55.908;37.880;2023-04-12T03:08:51;99952.16;;;3.35;81.15
76590;BME280;65471;55.908;37.880;2023-04-12T03:11:18;99955.69;;;3.35;81.48
76590;BME280;65471;55.908;37.880;2023-04-12T03:13:45;99953.84;;;3.36;80.77
76590;BME280;65471;55.908;37.880;2023-04-12T03:16:23;99958.38;;;3.35;81.69
76590;BME280;65471;55.908;37.880;2023-04-12T03:18:50;99956.69;;;3.34;81.71
76590;BME280;65471;55.908;37.880;2023-04-12T03:21:17;99968.22;;;3.35;81.86
76590;BME280;65471;55.908;37.880;2023-04-12T03:23:44;99961.03;;;3.35;81.35
76590;BME280;65471;55.908;37.880;2023-04-12T03:26:11;99960.84;;;3.37;81.43
76590;BME280;65471;55.908;37.880;2023-04-12T03:28:39;99964.34;;;3.37;81.37
76590;BME280;65471;55.908;37.880;2023-04-12T03:31:07;99967.88;;;3.38;81.81
76590;BME280;65471;55.908;37.880;2023-04-12T03:33:34;99967.88;;;3.38;81.32
76590;BME280;65471;55.908;37.880;2023-04-12T03:36:01;99974.41;;;3.35;81.04
76590;BME280;65471;55.908;37.880;2023-04-12T03:38:28;99979.56;;;3.37;81.17
76590;BME280;65471;55.908;37.880;2023-04-12T03:40:54;99978.72;;;3.36;81.44
76590;BME280;65471;55.908;37.880;2023-04-12T03:43:21;99983.06;;;3.37;81.20
76590;BME280;65471;55.908;37.880;2023-04-12T03:45:48;99980.38;;;3.37;81.48
76590;BME280;65471;55.908;37.880;2023-04-12T03:48:15;99988.41;;;3.37;81.77
76590;BME280;65471;55.908;37.880;2023-04-12T03:50:42;99990.91;;;3.39;81.05
76590;BME280;65471;55.908;37.880;2023-04-12T03:53:13;99982.69;;;3.40;81.63
76590;BME280;65471;55.908;37.880;2023-04-12T03:55:40;99980.31;;;3.45;81.66
76590;BME280;65471;55.908;37.880;2023-04-12T03:58:07;99978.28;;;3.48;80.96
76590;BME280;65471;55.908;37.880;2023-04-12T04:00:34;99984.94;;;3.52;81.25
76590;BME280;65471;55.908;37.880;2023-04-12T04:03:00;99981.09;;;3.54;81.43
76590;BME280;65471;55.908;37.880;2023-04-12T04:05:29;99977.22;;;3.57;81.99
76590;BME280;65471;55.908;37.880;2023-04-12T04:07:56;99986.53;;;3.61;81.41
76590;BME280;65471;55.908;37.880;2023-04-12T04:10:28;99975.47;;;3.64;81.69
76590;BME280;65471;55.908;37.880;2023-04-12T04:12:55;99984.44;;;3.71;81.24
76590;BME280;65471;55.908;37.880;2023-04-12T04:15:22;99981.41;;;3.74;81.66
76590;BME280;65471;55.908;37.880;2023-04-12T04:17:50;99979.66;;;3.82;81.52
76590;BME280;65471;55.908;37.880;2023-04-12T04:20:18;99991.28;;;3.89;81.66
76590;BME280;65471;55.908;37.880;2023-04-12T04:22:45;99987.03;;;3.94;81.67
76590;BME280;65471;55.908;37.880;2023-04-12T04:25:14;99984.47;;;4.01;81.80
76590;BME280;65471;55.908;37.880;2023-04-12T04:27:41;99984.78;;;4.06;81.22
76590;BME280;65471;55.908;37.880;2023-04-12T04:30:13;99985.88;;;4.12;81.69
76590;BME280;65471;55.908;37.880;2023-04-12T04:32:42;99986.13;;;4.17;81.31
76590;BME280;65471;55.908;37.880;2023-04-12T04:35:09;99980.22;;;4.22;81.49
76590;BME280;65471;55.908;37.880;2023-04-12T04:37:35;99977.00;;;4.26;81.43
76590;BME280;65471;55.908;37.880;2023-04-12T04:40:03;99975.44;;;4.32;81.30
76590;BME280;65471;55.908;37.880;2023-04-12T04:42:40;99988.69;;;4.40;81.53
76590;BME280;65471;55.908;37.880;2023-04-12T04:45:08;99985.88;;;4.42;81.06
76590;BME280;65471;55.908;37.880;2023-04-12T04:47:39;99984.63;;;4.44;81.02
76590;BME280;65471;55.908;37.880;2023-04-12T04:50:06;99980.56;;;4.48;81.37
76590;BME280;65471;55.908;37.880;2023-04-12T04:52:33;99981.88;;;4.53;81.30
76590;BME280;65471;55.908;37.880;2023-04-12T04:55:00;99986.66;;;4.57;81.76
76590;BME280;65471;55.908;37.880;2023-04-12T04:57:31;99986.56;;;4.65;81.12
76590;BME280;65471;55.908;37.880;2023-04-12T04:59:58;99985.63;;;4.73;81.13
76590;BME280;65471;55.908;37.880;2023-04-12T05:02:24;99990.84;;;4.81;81.58
76590;BME280;65471;55.908;37.880;2023-04-12T05:04:51;99990.75;;;4.90;81.33
76590;BME280;65471;55.908;37.880;2023-04-12T05:07:21;99987.31;;;4.96;81.54
76590;BME280;65471;55.908;37.880;2023-04-12T05:09:49;99987.56;;;5.01;81.13
76590;BME280;65471;55.908;37.880;2023-04-12T05:12:15;99993.81;;;5.08;81.12
76590;BME280;65471;55.908;37.880;2023-04-12T05:14:42;99996.78;;;5.13;81.51
76590;BME280;65471;55.908;37.880;2023-04-12T05:17:16;99995.38;;;5.17;81.44
76590;BME280;65471;55.908;37.880;2023-04-12T05:19:44;99998.31;;;5.23;81.04
76590;BME280;65471;55.908;37.880;2023-04-12T05:22:11;99990.53;;;5.28;81.06
76590;BME280;65471;55.908;37.880;2023-04-12T05:24:39;99994.38;;;5.40;81.24
76590;BME280;65471;55.908;37.880;2023-04-12T05:27:06;99991.53;;;5.48;80.87
76590;BME280;65471;55.908;37.880;2023-04-12T05:29:33;100001.03;;;5.51;81.11
76590;BME280;65471;55.908;37.880;2023-04-12T05:31:59;99999.84;;;5.53;81.44
76590;BME280;65471;55.908;37.880;2023-04-12T05:34:26;100008.56;;;5.62;81.10
76590;BME280;65471;55.908;37.880;2023-04-12T05:36:54;100006.38;;;5.73;80.75
76590;BME280;65471;55.908;37.880;2023-04-12T05:39:22;99999.25;;;5.86;81.05
76590;BME280;65471;55.908;37.880;2023-04-12T05:41:49;99999.56;;;5.98;80.94
76590;BME280;65471;55.908;37.880;2023-04-12T05:44:17;99996.53;;;6.08;80.98
76590;BME280;65471;55.908;37.880;2023-04-12T05:46:44;99995.94;;;6.13;80.54
76590;BME280;65471;55.908;37.880;2023-04-12T05:49:11;99993.72;;;6.16;80.76
76590;BME280;65471;55.908;37.880;2023-04-12T05:51:37;99994.78;;;6.22;80.64
76590;BME280;65471;55.908;37.880;2023-04-12T05:54:07;99998.53;;;6.28;80.34
76590;BME280;65471;55.908;37.880;2023-04-12T05:56:34;99998.56;;;6.34;80.64
76590;BME280;65471;55.908;37.880;2023-04-12T05:59:01;99997.56;;;6.42;80.40
76590;BME280;65471;55.908;37.880;2023-04-12T06:01:28;100001.75;;;6.51;80.25
76590;BME280;65471;55.908;37.880;2023-04-12T06:03:59;100005.06;;;6.53;80.38
76590;BME280;65471;55.908;37.880;2023-04-12T06:06:28;100002.63;;;6.59;80.15
76590;BME280;65471;55.908;37.880;2023-04-12T06:08:56;100007.44;;;6.70;79.84
76590;BME280;65471;55.908;37.880;2023-04-12T06:11:26;100007.22;;;6.78;79.86
76590;BME280;65471;55.908;37.880;2023-04-12T06:13:53;99993.66;;;6.93;79.66
76590;BME280;65471;55.908;37.880;2023-04-12T06:16:20;100002.38;;;7.15;78.89
76590;BME280;65471;55.908;37.880;2023-04-12T06:18:47;100000.97;;;7.33;78.42
76590;BME280;65471;55.908;37.880;2023-04-12T06:21:14;99997.88;;;7.49;77.85
76590;BME280;65471;55.908;37.880;2023-04-12T06:23:40;99997.06;;;7.69;76.84
76590;BME280;65471;55.908;37.880;2023-04-12T06:26:08;99988.16;;;7.88;76.24
76590;BME280;65471;55.908;37.880;2023-04-12T06:28:34;99989.56;;;8.11;75.43
76590;BME280;65471;55.908;37.880;2023-04-12T06:31:01;99983.28;;;8.37;74.19
76590;BME280;65471;55.908;37.880;2023-04-12T06:33:29;99983.19;;;8.71;73.24
76590;BME280;65471;55.908;37.880;2023-04-12T06:35:55;99981.78;;;9.00;72.19
76590;BME280;65471;55.908;37.880;2023-04-12T06:38:22;99979.69;;;9.41;68.63
76590;BME280;65471;55.908;37.880;2023-04-12T06:40:49;99976.53;;;9.69;68.25
76590;BME280;65471;55.908;37.880;2023-04-12T06:43:16;99975.69;;;9.94;67.92
76590;BME280;65471;55.908;37.880;2023-04-12T06:45:48;99970.44;;;10.17;66.96
76590;BME280;65471;55.908;37.880;2023-04-12T06:48:17;99969.84;;;10.41;66.55
76590;BME280;65471;55.908;37.880;2023-04-12T06:50:44;99973.72;;;10.63;65.67
76590;BME280;65471;55.908;37.880;2023-04-12T06:53:11;99974.09;;;10.97;61.17
76590;BME280;65471;55.908;37.880;2023-04-12T06:55:41;99963.03;;;11.29;59.60
76590;BME280;65471;55.908;37.880;2023-04-12T06:58:08;99964.47;;;11.55;55.27
76590;BME280;65471;55.908;37.880;2023-04-12T07:00:35;99971.91;;;11.84;53.55
76590;BME280;65471;55.908;37.880;2023-04-12T07:03:03;99970.06;;;12.08;53.54
76590;BME280;65471;55.908;37.880;2023-04-12T07:05:30;99968.66;;;12.17;54.14
76590;BME280;65471;55.908;37.880;2023-04-12T07:07:57;99973.47;;;12.27;53.92
76590;BME280;65471;55.908;37.880;2023-04-12T07:10:23;99969.91;;;12.38;54.11
76590;BME280;65471;55.908;37.880;2023-04-12T07:12:50;99965.75;;;12.48;51.15
76590;BME280;65471;55.908;37.880;2023-04-12T07:15:17;99961.22;;;12.65;48.55
76590;BME280;65471;55.908;37.880;2023-04-12T07:17:44;99961.78;;;12.79;49.10
76590;BME280;65471;55.908;37.880;2023-04-12T07:20:11;99964.91;;;12.88;49.28
76590;BME280;65471;55.908;37.880;2023-04-12T07:22:37;99960.16;;;12.95;49.24
76590;BME280;65471;55.908;37.880;2023-04-12T07:25:04;99970.50;;;13.10;47.63
76590;BME280;65471;55.908;37.880;2023-04-12T07:27:35;99965.41;;;13.13;48.84
76590;BME280;65471;55.908;37.880;2023-04-12T07:30:03;99963.59;;;13.19;49.64
76590;BME280;65471;55.908;37.880;2023-04-12T07:32:29;99964.19;;;13.21;49.70
76590;BME280;65471;55.908;37.880;2023-04-12T07:34:56;99960.00;;;13.30;47.94
76590;BME280;65471;55.908;37.880;2023-04-12T07:37:23;99962.59;;;13.37;46.67
76590;BME280;65471;55.908;37.880;2023-04-12T07:39:50;99962.34;;;13.56;43.41
76590;BME280;65471;55.908;37.880;2023-04-12T07:42:17;99965.63;;;13.75;42.17
76590;BME280;65471;55.908;37.880;2023-04-12T07:44:44;99961.25;;;13.91;39.66
76590;BME280;65471;55.908;37.880;2023-04-12T07:47:10;99962.56;;;14.05;39.74
76590;BME280;65471;55.908;37.880;2023-04-12T07:49:37;99955.06;;;14.12;40.79
76590;BME280;65471;55.908;37.880;2023-04-12T07:52:04;99962.69;;;14.15;39.47
76590;BME280;65471;55.908;37.880;2023-04-12T07:54:31;99957.06;;;14.22;39.13
76590;BME280;65471;55.908;37.880;2023-04-12T07:56:59;99957.22;;;14.32;38.79
76590;BME280;65471;55.908;37.880;2023-04-12T07:59:27;99955.91;;;14.35;39.96
76590;BME280;65471;55.908;37.880;2023-04-12T08:01:54;99947.88;;;14.45;38.95
76590;BME280;65471;55.908;37.880;2023-04-12T08:04:21;99947.09;;;14.50;40.49
76590;BME280;65471;55.908;37.880;2023-04-12T08:06:48;99947.44;;;14.54;38.31
76590;BME280;65471;55.908;37.880;2023-04-12T08:09:15;99942.13;;;14.64;37.54
76590;BME280;65471;55.908;37.880;2023-04-12T08:11:41;99942.84;;;14.81;36.59
76590;BME280;65471;55.908;37.880;2023-04-12T08:14:08;99943.84;;;14.97;35.88
76590;BME280;65471;55.908;37.880;2023-04-12T08:16:36;99940.34;;;15.02;37.09
76590;BME280;65471;55.908;37.880;2023-04-12T08:19:03;99944.44;;;15.05;38.08
76590;BME280;65471;55.908;37.880;2023-04-12T08:21:30;99938.75;;;15.06;38.74
76590;BME280;65471;55.908;37.880;2023-04-12T08:23:56;99945.91;;;15.12;37.24
76590;BME280;65471;55.908;37.880;2023-04-12T08:26:24;99936.13;;;15.16;37.36
76590;BME280;65471;55.908;37.880;2023-04-12T08:28:52;99934.28;;;15.22;35.70
76590;BME280;65471;55.908;37.880;2023-04-12T08:31:19;99936.78;;;15.29;37.29
76590;BME280;65471;55.908;37.880;2023-04-12T08:33:46;99937.88;;;15.28;38.14
76590;BME280;65471;55.908;37.880;2023-04-12T08:36:13;99924.59;;;15.36;36.25
76590;BME280;65471;55.908;37.880;2023-04-12T08:38:40;99925.53;;;15.52;36.74
76590;BME280;65471;55.908;37.880;2023-04-12T08:41:12;99928.53;;;15.56;38.05
76590;BME280;65471;55.908;37.880;2023-04-12T08:43:43;99935.69;;;15.62;37.03
76590;BME280;65471;55.908;37.880;2023-04-12T08:46:14;99930.03;;;15.74;36.37
76590;BME280;65471;55.908;37.880;2023-04-12T08:48:47;99929.59;;;15.82;36.28
76590;BME280;65471;55.908;37.880;2023-04-12T08:51:16;99920.13;;;15.95;34.35
76590;BME280;65471;55.908;37.880;2023-04-12T08:53:44;99920.47;;;16.09;35.02
76590;BME280;65471;55.908;37.880;2023-04-12T08:56:13;99913.38;;;16.08;36.30
76590;BME280;65471;55.908;37.880;2023-04-12T08:58:43;99926.59;;;15.84;37.14
76590;BME280;65471;55.908;37.880;2023-04-12T09:01:12;99916.78;;;15.83;36.76
76590;BME280;65471;55.908;37.880;2023-04-12T09:03:41;99914.13;;;15.98;36.96
76590;BME280;65471;55.908;37.880;2023-04-12T09:06:09;99910.94;;;16.12;36.75
76590;BME280;65471;55.908;37.880;2023-04-12T09:08:36;99911.84;;;16.28;34.69
76590;BME280;65471;55.908;37.880;2023-04-12T09:11:24;99910.25;;;16.47;35.27
76590;BME280;65471;55.908;37.880;2023-04-12T09:13:55;99917.09;;;16.50;35.91
76590;BME280;65471;55.908;37.880;2023-04-12T09:16:40;99910.84;;;16.60;34.46
76590;BME280;65471;55.908;37.880;2023-04-12T09:19:07;99905.19;;;16.87;34.59
76590;BME280;65471;55.908;37.880;2023-04-12T09:21:35;99904.44;;;17.28;34.46
76590;BME280;65471;55.908;37.880;2023-04-12T09:24:07;99902.78;;;17.68;33.02
76590;BME280;65471;55.908;37.880;2023-04-12T09:26:39;99895.06;;;17.96;32.98
76590;BME280;65471;55.908;37.880;2023-04-12T09:29:21;99894.44;;;18.24;32.24
76590;BME280;65471;55.908;37.880;2023-04-12T09:32:03;99885.69;;;18.22;32.58
76590;BME280;65471;55.908;37.880;2023-04-12T09:34:31;99886.88;;;17.85;33.74
76590;BME280;65471;55.908;37.880;2023-04-12T09:36:58;99884.22;;;17.54;30.53
76590;BME280;65471;55.908;37.880;2023-04-12T09:39:34;99892.13;;;17.20;31.19
76590;BME280;65471;55.908;37.880;2023-04-12T09:42:12;99885.28;;;16.91;32.06
76590;BME280;65471;55.908;37.880;2023-04-12T09:44:58;99875.97;;;16.87;33.53
76590;BME280;65471;55.908;37.880;2023-04-12T09:47:38;99887.78;;;17.14;34.13
76590;BME280;65471;55.908;37.880;2023-04-12T09:50:06;99874.63;;;17.05;34.15
76590;BME280;65471;55.908;37.880;2023-04-12T09:52:36;99878.72;;;17.03;33.60
76590;BME280;65471;55.908;37.880;2023-04-12T09:55:07;99885.03;;;17.08;33.32
76590;BME280;65471;55.908;37.880;2023-04-12T09:57:44;99878.19;;;17.21;33.39
76590;BME280;65471;55.908;37.880;2023-04-12T10:00:12;99871.09;;;17.20;33.21
76590;BME280;65471;55.908;37.880;2023-04-12T10:02:46;99876.00;;;17.08;33.66
76590;BME280;65471;55.908;37.880;2023-04-12T10:05:16;99876.03;;;17.13;32.72
76590;BME280;65471;55.908;37.880;2023-04-12T10:07:45;99863.72;;;17.11;32.25
76590;BME280;65471;55.908;37.880;2023-04-12T10:10:13;99862.91;;;17.15;31.24
76590;BME280;65471;55.908;37.880;2023-04-12T10:12:42;99854.69;;;17.25;30.27
76590;BME280;65471;55.908;37.880;2023-04-12T10:15:12;99857.44;;;17.31;30.62
76590;BME280;65471;55.908;37.880;2023-04-12T10:17:46;99857.44;;;17.36;31.79
76590;BME280;65471;55.908;37.880;2023-04-12T10:20:15;99852.22;;;17.34;32.28
76590;BME280;65471;55.908;37.880;2023-04-12T10:25:16;99851.41;;;17.44;32.60
76590;BME280;65471;55.908;37.880;2023-04-12T10:27:44;99851.97;;;17.31;32.69
76590;BME280;65471;55.908;37.880;2023-04-12T10:38:17;99841.59;;;17.12;32.68
76590;BME280;65471;55.908;37.880;2023-04-12T10:41:11;99845.13;;;17.28;32.55
76590;BME280;65471;55.908;37.880;2023-04-12T10:43:56;99841.31;;;17.24;32.50
76590;BME280;65471;55.908;37.880;2023-04-12T10:51:36;99835.84;;;17.14;32.55
76590;BME280;65471;55.908;37.880;2023-04-12T10:56:35;99826.81;;;17.18;31.08
76590;BME280;65471;55.908;37.880;2023-04-12T10:59:04;99825.47;;;17.21;31.38
76590;BME280;65471;55.908;37.880;2023-04-12T11:01:31;99827.09;;;17.17;31.36
76590;BME280;65471;55.908;37.880;2023-04-12T11:04:35;99828.44;;;17.50;31.02
76590;BME280;65471;55.908;37.880;2023-04-12T11:07:07;99822.34;;;17.74;30.65
76590;BME280;65471;55.908;37.880;2023-04-12T11:09:38;99810.28;;;17.85;31.08
76590;BME280;65471;55.908;37.880;2023-04-12T11:12:12;99816.28;;;18.03;31.23
76590;BME280;65471;55.908;37.880;2023-04-12T11:14:51;99807.50;;;18.06;31.73
76590;BME280;65471;55.908;37.880;2023-04-12T11:17:20;99798.78;;;17.99;30.85
76590;BME280;65471;55.908;37.880;2023-04-12T11:19:53;99800.19;;;17.86;29.80
76590;BME280;65471;55.908;37.880;2023-04-12T11:22:23;99795.03;;;17.58;30.06
76590;BME280;65471;55.908;37.880;2023-04-12T11:24:53;99786.00;;;17.68;30.00
76590;BME280;65471;55.908;37.880;2023-04-12T11:27:21;99785.94;;;17.89;30.28
76590;BME280;65471;55.908;37.880;2023-04-12T11:29:50;99792.69;;;18.17;30.86
76590;BME280;65471;55.908;37.880;2023-04-12T11:32:19;99772.03;;;18.35;29.85
76590;BME280;65471;55.908;37.880;2023-04-12T11:34:46;99767.47;;;18.20;30.08
76590;BME280;65471;55.908;37.880;2023-04-12T11:37:13;99767.97;;;18.27;30.35
76590;BME280;65471;55.908;37.880;2023-04-12T11:39:42;99766.91;;;18.23;30.10
76590;BME280;65471;55.908;37.880;2023-04-12T11:42:12;99759.38;;;17.89;30.85
76590;BME280;65471;55.908;37.880;2023-04-12T11:44:42;99763.25;;;17.83;31.19
76590;BME280;65471;55.908;37.880;2023-04-12T11:47:24;99755.69;;;17.65;30.40
76590;BME280;65471;55.908;37.880;2023-04-12T11:49:53;99761.72;;;17.51;31.21
76590;BME280;65471;55.908;37.880;2023-04-12T11:52:26;99754.69;;;17.35;30.66
76590;BME280;65471;55.908;37.880;2023-04-12T11:54:54;99743.50;;;17.21;31.01
76590;BME280;65471;55.908;37.880;2023-04-12T11:57:24;99747.91;;;17.12;30.73
76590;BME280;65471;55.908;37.880;2023-04-12T11:59:51;99744.34;;;17.06;31.08
76590;BME280;65471;55.908;37.880;2023-04-12T12:02:19;99741.06;;;17.04;30.98
76590;BME280;65471;55.908;37.880;2023-04-12T12:04:55;99735.88;;;17.02;31.65
76590;BME280;65471;55.908;37.880;2023-04-12T12:07:23;99728.78;;;17.01;31.65
76590;BME280;65471;55.908;37.880;2023-04-12T12:09:50;99739.97;;;17.05;31.88
76590;BME280;65471;55.908;37.880;2023-04-12T12:12:17;99731.69;;;17.46;30.63
76590;BME280;65471;55.908;37.880;2023-04-12T12:14:44;99734.81;;;17.79;30.39
76590;BME280;65471;55.908;37.880;2023-04-12T12:17:14;99734.50;;;17.96;30.69
76590;BME280;65471;55.908;37.880;2023-04-12T12:19:42;99717.00;;;19.30;27.44
76590;BME280;65471;55.908;37.880;2023-04-12T12:22:10;99718.81;;;20.59;26.79
76590;BME280;65471;55.908;37.880;2023-04-12T12:24:56;99717.97;;;21.38;26.63
76590;BME280;65471;55.908;37.880;2023-04-12T12:29:59;99708.78;;;22.58;24.37
76590;BME280;65471;55.908;37.880;2023-04-12T12:32:34;99702.84;;;22.96;24.20
76590;BME280;65471;55.908;37.880;2023-04-12T12:35:07;99706.44;;;22.74;24.75
76590;BME280;65471;55.908;37.880;2023-04-12T12:37:35;99705.94;;;22.13;25.66
76590;BME280;65471;55.908;37.880;2023-04-12T12:40:06;99698.22;;;21.23;26.70
76590;BME280;65471;55.908;37.880;2023-04-12T12:42:54;99700.22;;;20.37;28.03
76590;BME280;65471;55.908;37.880;2023-04-12T12:45:23;99697.16;;;19.62;28.42
76590;BME280;65471;55.908;37.880;2023-04-12T12:47:53;99691.69;;;19.14;28.89
76590;BME280;65471;55.908;37.880;2023-04-12T12:50:22;99698.94;;;18.70;29.48
76590;BME280;65471;55.908;37.880;2023-04-12T12:52:51;99688.53;;;18.38;29.13
76590;BME280;65471;55.908;37.880;2023-04-12T12:55:19;99691.22;;;18.03;29.62
76590;BME280;65471;55.908;37.880;2023-04-12T12:57:48;99699.50;;;17.88;28.59
76590;BME280;65471;55.908;37.880;2023-04-12T13:00:32;99687.78;;;17.77;28.19
76590;BME280;65471;55.908;37.880;2023-04-12T13:02:59;99685.09;;;17.72;29.39
76590;BME280;65471;55.908;37.880;2023-04-12T13:05:27;99683.97;;;17.78;29.09
76590;BME280;65471;55.908;37.880;2023-04-12T13:07:54;99677.75;;;17.67;31.07
76590;BME280;65471;55.908;37.880;2023-04-12T13:10:21;99674.91;;;17.83;31.18
76590;BME280;65471;55.908;37.880;2023-04-12T13:12:49;99679.47;;;18.03;30.06
76590;BME280;65471;55.908;37.880;2023-04-12T13:15:15;99668.78;;;18.06;30.95
76590;BME280;65471;55.908;37.880;2023-04-12T13:17:52;99672.72;;;17.85;30.89
76590;BME280;65471;55.908;37.880;2023-04-12T13:20:20;99664.09;;;17.62;30.20
76590;BME280;65471;55.908;37.880;2023-04-12T13:22:48;99664.44;;;17.50;31.32
76590;BME280;65471;55.908;37.880;2023-04-12T13:25:15;99674.16;;;17.67;31.35
76590;BME280;65471;55.908;37.880;2023-04-12T13:27:42;99666.13;;;17.96;31.03
76590;BME280;65471;55.908;37.880;2023-04-12T13:30:09;99669.97;;;18.29;30.05
76590;BME280;65471;55.908;37.880;2023-04-12T13:32:37;99668.56;;;18.37;28.54
76590;BME280;65471;55.908;37.880;2023-04-12T13:35:04;99664.56;;;18.24;28.82
76590;BME280;65471;55.908;37.880;2023-04-12T13:37:32;99661.94;;;18.04;29.28
76590;BME280;65471;55.908;37.880;2023-04-12T13:39:59;99667.47;;;17.88;29.33